createdAt,value
2022-09-01T00:02:03.916Z,22.67
2022-09-01T00:04:33.830Z,22.69
2022-09-01T00:07:03.662Z,22.68
2022-09-01T00:09:33.575Z,22.68
2022-09-01T00:12:04.531Z,22.64
2022-09-01T00:14:41.535Z,22.63
2022-09-01T00:17:14.023Z,22.63
2022-09-01T00:19:44.572Z,22.62
2022-09-01T00:22:14.434Z,22.62
2022-09-01T00:24:44.613Z,22.62
2022-09-01T00:27:14.443Z,22.62
2022-09-01T00:29:46.922Z,22.57
2022-09-01T00:32:16.881Z,22.56
2022-09-01T00:34:46.855Z,22.56
2022-09-01T00:37:16.721Z,22.53
2022-09-01T00:39:46.544Z,22.53
2022-09-01T00:42:16.572Z,22.55
2022-09-01T00:44:49.020Z,22.55
2022-09-01T00:47:19.415Z,22.55
2022-09-01T00:49:52.294Z,22.53
2022-09-01T00:52:24.955Z,22.53
2022-09-01T00:55:00.899Z,22.50
2022-09-01T00:57:31.358Z,22.52
2022-09-01T01:00:11.239Z,22.51
2022-09-01T01:02:41.722Z,22.53
2022-09-01T01:05:14.175Z,22.50
2022-09-01T01:07:48.019Z,22.49
2022-09-01T01:10:20.651Z,22.46
2022-09-01T01:12:52.701Z,22.46
2022-09-01T01:15:25.181Z,22.43
2022-09-01T01:17:55.096Z,22.42
2022-09-01T01:20:43.039Z,22.39
2022-09-01T01:23:24.453Z,22.39
2022-09-01T01:26:00.077Z,22.38
2022-09-01T01:28:36.077Z,22.36
2022-09-01T01:31:12.080Z,22.35
2022-09-01T01:33:45.194Z,22.33
2022-09-01T01:36:19.570Z,22.30
2022-09-01T01:38:53.281Z,22.30
2022-09-01T01:41:25.767Z,22.29
2022-09-01T01:43:56.990Z,22.29
2022-09-01T01:46:28.065Z,22.25
2022-09-01T01:48:58.050Z,22.25
2022-09-01T01:51:28.570Z,22.24
2022-09-01T01:53:59.752Z,22.23
2022-09-01T01:56:32.987Z,22.22
2022-09-01T01:59:04.898Z,22.18
2022-09-01T02:01:39.450Z,22.15
2022-09-01T02:04:10.002Z,22.13
2022-09-01T02:06:45.095Z,22.08
2022-09-01T02:09:17.232Z,22.06
2022-09-01T02:11:55.274Z,22.03
2022-09-01T02:14:25.681Z,22.01
2022-09-01T02:16:56.245Z,21.98
2022-09-01T02:19:26.525Z,21.96
2022-09-01T02:22:04.279Z,21.95
2022-09-01T02:24:34.250Z,21.95
2022-09-01T02:27:07.623Z,21.91
2022-09-01T02:29:41.890Z,21.90
2022-09-01T02:32:14.697Z,21.89
2022-09-01T02:34:44.648Z,21.87
2022-09-01T02:37:15.943Z,21.86
2022-09-01T02:39:46.204Z,21.84
2022-09-01T02:42:18.647Z,21.83
2022-09-01T02:44:48.559Z,21.82
2022-09-01T02:47:18.447Z,21.79
2022-09-01T02:49:48.514Z,21.77
2022-09-01T02:52:20.722Z,21.74
2022-09-01T02:54:51.373Z,21.69
2022-09-01T02:57:24.528Z,21.65
2022-09-01T02:59:55.307Z,21.62
2022-09-01T03:02:26.973Z,21.59
2022-09-01T03:04:57.486Z,21.59
2022-09-01T03:07:27.933Z,21.56
2022-09-01T03:09:57.837Z,21.51
2022-09-01T03:12:30.239Z,21.47
2022-09-01T03:15:00.119Z,21.42
2022-09-01T03:17:29.979Z,21.39
2022-09-01T03:20:00.373Z,21.37
2022-09-01T03:22:30.182Z,21.36
2022-09-01T03:25:00.119Z,21.32
2022-09-01T03:27:33.538Z,21.29
2022-09-01T03:30:03.400Z,21.28
2022-09-01T03:32:33.325Z,21.25
2022-09-01T03:35:03.451Z,21.22
2022-09-01T03:37:33.388Z,21.20
2022-09-01T03:40:04.384Z,21.20
2022-09-01T03:42:39.072Z,21.16
2022-09-01T03:45:12.752Z,21.16
2022-09-01T03:47:47.195Z,21.14
2022-09-01T03:50:23.015Z,21.10
2022-09-01T03:52:54.899Z,21.09
2022-09-01T03:55:27.471Z,21.06
2022-09-01T03:58:03.364Z,21.05
2022-09-01T04:00:35.950Z,21.04
2022-09-01T04:03:07.826Z,20.99
2022-09-01T04:05:40.855Z,20.96
2022-09-01T04:08:13.580Z,20.95
2022-09-01T04:10:52.611Z,20.88
2022-09-01T04:13:30.444Z,20.86
2022-09-01T04:16:01.339Z,20.85
2022-09-01T04:18:30.324Z,20.84
2022-09-01T04:21:02.222Z,20.80
2022-09-01T04:23:34.019Z,20.80
2022-09-01T04:26:14.946Z,20.79
2022-09-01T04:28:51.352Z,20.81
2022-09-01T04:31:23.798Z,20.79
2022-09-01T04:33:55.528Z,20.79
2022-09-01T04:36:32.512Z,20.79
2022-09-01T04:39:08.863Z,20.79
2022-09-01T04:41:46.276Z,20.79
2022-09-01T04:44:20.229Z,20.81
2022-09-01T04:46:50.916Z,20.82
2022-09-01T04:49:26.535Z,20.78
2022-09-01T04:51:57.047Z,20.78
2022-09-01T04:54:28.102Z,20.78
2022-09-01T04:56:58.076Z,20.80
2022-09-01T04:59:33.132Z,20.81
2022-09-01T05:02:07.892Z,20.88
2022-09-01T05:04:41.846Z,20.90
2022-09-01T05:07:14.285Z,20.97
2022-09-01T05:09:45.955Z,21.03
2022-09-01T05:12:35.539Z,21.11
2022-09-01T05:15:09.699Z,21.16
2022-09-01T05:17:40.107Z,21.25
2022-09-01T05:20:12.164Z,21.30
2022-09-01T05:22:42.143Z,21.37
2022-09-01T05:25:14.617Z,21.46
2022-09-01T05:27:49.931Z,21.54
2022-09-01T05:30:28.715Z,21.62
2022-09-01T05:32:58.773Z,21.71
2022-09-01T05:35:32.547Z,21.81
2022-09-01T05:38:03.713Z,21.90
2022-09-01T05:40:34.509Z,21.94
2022-09-01T05:43:04.469Z,22.01
2022-09-01T05:46:03.121Z,22.06
2022-09-01T05:48:31.552Z,22.13
2022-09-01T05:51:01.586Z,22.18
2022-09-01T05:53:34.145Z,22.23
2022-09-01T05:56:06.872Z,22.27
2022-09-01T06:01:33.582Z,22.44
2022-09-01T06:04:06.581Z,22.52
2022-09-01T06:07:01.726Z,22.59
2022-09-01T06:09:31.003Z,22.68
2022-09-01T06:12:03.050Z,22.74
2022-09-01T06:14:32.917Z,22.77
2022-09-01T06:17:11.765Z,22.77
2022-09-01T06:19:42.882Z,22.84
2022-09-01T06:22:13.456Z,22.92
2022-09-01T06:24:43.925Z,23.03
2022-09-01T06:27:18.561Z,23.14
2022-09-01T06:29:49.566Z,23.19
2022-09-01T06:32:26.004Z,23.24
2022-09-01T06:35:00.529Z,23.31
2022-09-01T06:37:30.814Z,23.32
2022-09-01T06:40:04.513Z,23.38
2022-09-01T06:42:35.351Z,23.45
2022-09-01T06:45:10.528Z,23.54
2022-09-01T06:47:43.735Z,23.64
2022-09-01T06:51:14.617Z,23.72
2022-09-01T06:56:02.941Z,23.97
2022-09-01T06:58:33.831Z,24.09
2022-09-01T07:01:12.060Z,24.20
2022-09-01T07:03:45.093Z,24.31
2022-09-01T07:09:20.441Z,24.48
2022-09-01T07:12:28.246Z,24.57
2022-09-01T07:17:52.423Z,24.78
2022-09-01T07:20:30.197Z,24.84
2022-09-01T07:23:04.010Z,24.91
2022-09-01T07:26:00.436Z,24.97
2022-09-01T07:28:39.982Z,25.04
2022-09-01T07:39:51.511Z,25.38
2022-09-01T07:42:55.722Z,25.30
2022-09-01T07:45:59.194Z,25.50
2022-09-01T07:51:39.328Z,25.55
2022-09-01T07:54:14.088Z,25.62
2022-09-01T07:56:44.951Z,25.71
2022-09-01T07:59:15.854Z,25.78
2022-09-01T08:02:24.566Z,25.85
2022-09-01T08:04:55.412Z,25.92
2022-09-01T08:07:25.703Z,25.97
2022-09-01T08:10:01.413Z,25.99
2022-09-01T08:12:33.868Z,26.04
2022-09-01T08:17:54.871Z,26.21
2022-09-01T08:20:27.307Z,26.29
2022-09-01T08:23:26.527Z,26.44
2022-09-01T08:25:59.202Z,26.53
2022-09-01T08:28:29.369Z,26.63
2022-09-01T08:31:00.231Z,26.68
2022-09-01T08:33:35.259Z,26.76
2022-09-01T08:36:06.393Z,26.77
2022-09-01T08:38:36.429Z,26.86
2022-09-01T08:41:19.235Z,26.91
2022-09-01T08:44:08.521Z,27.06
2022-09-01T08:46:42.719Z,27.22
2022-09-01T08:49:25.137Z,27.35
2022-09-01T08:52:29.318Z,27.48
2022-09-01T08:55:05.635Z,27.55
2022-09-01T08:57:40.471Z,27.63
2022-09-01T09:00:26.220Z,27.76
2022-09-01T09:03:14.656Z,27.84
2022-09-01T09:05:59.665Z,27.93
2022-09-01T09:08:53.963Z,27.98
2022-09-01T09:11:51.889Z,28.12
2022-09-01T09:14:36.778Z,28.25
2022-09-01T09:17:07.903Z,28.44
2022-09-01T09:19:40.166Z,28.58
2022-09-01T09:22:13.074Z,28.76
2022-09-01T09:24:50.634Z,28.92
2022-09-01T09:27:23.173Z,28.84
2022-09-01T09:29:57.524Z,28.59
2022-09-01T09:33:19.968Z,28.72
2022-09-01T09:35:37.970Z,28.72
2022-09-01T09:38:29.211Z,28.35
2022-09-01T09:41:20.610Z,28.21
2022-09-01T09:43:59.424Z,28.03
2022-09-01T09:46:39.968Z,27.83
2022-09-01T09:49:14.751Z,27.73
2022-09-01T09:51:48.613Z,27.95
2022-09-01T09:54:26.315Z,27.91
2022-09-01T09:57:14.761Z,27.71
2022-09-01T09:59:58.877Z,27.46
2022-09-01T10:02:36.105Z,27.19
2022-09-01T10:05:27.083Z,26.99
2022-09-01T10:07:58.705Z,26.86
2022-09-01T10:10:33.681Z,27.01
2022-09-01T10:13:03.884Z,27.34
2022-09-01T10:15:36.223Z,27.38
2022-09-01T10:18:20.548Z,27.24
2022-09-01T10:20:56.888Z,27.05
2022-09-01T10:23:31.066Z,26.93
2022-09-01T10:26:06.428Z,27.46
2022-09-01T10:28:47.217Z,27.57
2022-09-01T10:31:20.728Z,27.43
2022-09-01T10:33:53.687Z,27.24
2022-09-01T10:36:24.820Z,27.24
2022-09-01T10:39:04.392Z,27.52
2022-09-01T10:42:00.208Z,27.98
2022-09-01T10:44:35.659Z,28.50
2022-09-01T10:47:16.443Z,28.87
2022-09-01T10:50:09.795Z,29.20
2022-09-01T10:53:06.017Z,29.47
2022-09-01T10:55:49.933Z,29.53
2022-09-01T11:02:27.116Z,29.65
2022-09-01T11:05:17.486Z,30.15
2022-09-01T11:08:00.403Z,30.02
2022-09-01T11:10:49.281Z,30.52
2022-09-01T11:13:49.179Z,32.21
2022-09-01T11:16:46.484Z,32.47
2022-09-01T11:19:44.564Z,31.28
2022-09-01T11:22:31.056Z,30.18
2022-09-01T11:25:39.582Z,29.34
2022-09-01T11:28:46.156Z,28.82
2022-09-01T11:31:24.378Z,28.45
2022-09-01T11:34:06.478Z,28.07
2022-09-01T11:36:39.486Z,27.80
2022-09-01T11:39:30.978Z,27.55
2022-09-01T11:42:05.738Z,27.44
2022-09-01T11:44:43.434Z,27.87
2022-09-01T11:47:16.777Z,29.02
2022-09-01T11:49:53.897Z,29.60
2022-09-01T11:52:26.657Z,29.34
2022-09-01T11:55:00.995Z,28.81
2022-09-01T11:57:34.011Z,28.31
2022-09-01T12:00:09.578Z,27.90
2022-09-01T12:02:48.979Z,27.58
2022-09-01T12:05:32.799Z,27.32
2022-09-01T12:08:05.313Z,27.13
2022-09-01T12:10:40.443Z,26.99
2022-09-01T12:13:12.259Z,26.93
2022-09-01T12:16:06.908Z,26.87
2022-09-01T12:18:38.413Z,26.92
2022-09-01T12:21:10.655Z,26.98
2022-09-01T12:23:43.253Z,27.14
2022-09-01T12:26:17.997Z,27.13
2022-09-01T12:28:49.939Z,27.07
2022-09-01T12:31:23.833Z,26.97
2022-09-01T12:33:55.548Z,26.91
2022-09-01T12:36:28.299Z,26.94
2022-09-01T12:38:59.181Z,26.96
2022-09-01T12:41:39.545Z,26.97
2022-09-01T12:44:37.931Z,27.00
2022-09-01T12:47:10.622Z,27.02
2022-09-01T12:49:50.804Z,27.08
2022-09-01T12:52:28.333Z,27.15
2022-09-01T12:58:12.237Z,27.35
2022-09-01T13:00:59.232Z,27.33
2022-09-01T13:03:30.273Z,27.36
2022-09-01T13:06:02.043Z,27.27
2022-09-01T13:08:33.961Z,27.12
2022-09-01T13:11:07.466Z,27.02
2022-09-01T13:13:39.956Z,27.14
2022-09-01T13:16:13.983Z,27.28
2022-09-01T13:21:37.287Z,27.47
2022-09-01T13:24:09.665Z,27.53
2022-09-01T13:26:39.681Z,27.60
2022-09-01T13:29:12.116Z,27.56
2022-09-01T13:32:16.864Z,27.49
2022-09-01T13:34:34.855Z,27.39
2022-09-01T13:37:05.413Z,27.23
2022-09-01T13:39:35.415Z,27.10
2022-09-01T13:42:05.324Z,27.07
2022-09-01T13:44:37.808Z,27.02
2022-09-01T13:50:06.937Z,26.93
2022-09-01T13:52:38.049Z,26.91
2022-09-01T13:55:09.524Z,26.85
2022-09-01T13:57:39.436Z,26.79
2022-09-01T14:00:15.829Z,26.77
2022-09-01T14:02:50.248Z,26.77
2022-09-01T14:05:22.330Z,26.73
2022-09-01T14:07:52.576Z,26.73
2022-09-01T14:10:24.115Z,26.71
2022-09-01T14:12:54.530Z,26.72
2022-09-01T14:15:27.622Z,26.70
2022-09-01T14:18:00.507Z,26.69
2022-09-01T14:20:33.471Z,26.67
2022-09-01T14:23:07.714Z,26.68
2022-09-01T14:25:38.260Z,26.62
2022-09-01T14:28:08.274Z,26.63
2022-09-01T14:30:43.470Z,26.62
2022-09-01T14:33:14.103Z,26.64
2022-09-01T14:35:45.864Z,26.65
2022-09-01T14:38:17.181Z,26.62
2022-09-01T14:40:52.595Z,26.59
2022-09-01T14:43:22.982Z,26.60
2022-09-01T14:46:06.628Z,26.60
2022-09-01T14:48:37.445Z,26.58
2022-09-01T14:51:08.013Z,26.57
2022-09-01T14:53:38.396Z,26.56
2022-09-01T14:56:08.804Z,26.56
2022-09-01T14:58:40.761Z,26.56
2022-09-01T15:01:33.177Z,26.56
2022-09-01T15:04:03.392Z,26.54
2022-09-01T15:06:34.034Z,26.50
2022-09-01T15:09:03.899Z,26.46
2022-09-01T15:11:33.833Z,26.41
2022-09-01T15:14:09.707Z,26.40
2022-09-01T15:16:43.100Z,26.35
2022-09-01T15:19:14.914Z,26.32
2022-09-01T15:21:46.920Z,26.31
2022-09-01T15:24:18.636Z,26.27
2022-09-01T15:26:48.721Z,26.25
2022-09-01T15:29:18.639Z,26.20
2022-09-01T15:31:51.100Z,26.15
2022-09-01T15:34:21.016Z,26.14
2022-09-01T15:36:50.944Z,26.12
2022-09-01T15:39:21.480Z,26.09
2022-09-01T15:41:51.563Z,26.05
2022-09-01T15:44:21.518Z,26.03
2022-09-01T15:46:54.203Z,25.98
2022-09-01T15:49:24.128Z,25.96
2022-09-01T15:51:59.355Z,25.93
2022-09-01T15:54:30.662Z,25.95
2022-09-01T15:57:00.852Z,25.94
2022-09-01T15:59:30.721Z,25.91
2022-09-01T16:02:03.340Z,25.91
2022-09-01T16:04:33.268Z,25.92
2022-09-01T16:07:03.337Z,25.89
2022-09-01T16:09:33.287Z,25.83
2022-09-01T16:12:03.171Z,25.80
2022-09-01T16:14:33.114Z,25.79
2022-09-01T16:17:11.185Z,25.76
2022-09-01T16:19:50.717Z,25.78
2022-09-01T16:22:25.924Z,25.73
2022-09-01T16:24:57.909Z,25.69
2022-09-01T16:27:34.872Z,25.66
2022-09-01T16:30:10.434Z,25.66
2022-09-01T16:32:47.088Z,25.67
2022-09-01T16:35:19.748Z,25.67
2022-09-01T16:37:58.872Z,25.62
2022-09-01T16:40:41.135Z,25.57
2022-09-01T16:43:16.342Z,25.53
2022-09-01T16:45:57.091Z,25.51
2022-09-01T16:48:43.353Z,25.50
2022-09-01T16:51:22.242Z,25.48
2022-09-01T16:54:12.206Z,25.42
2022-09-01T16:56:51.858Z,25.39
2022-09-01T16:59:32.740Z,25.35
2022-09-01T17:02:16.643Z,25.31
2022-09-01T17:04:51.739Z,25.28
2022-09-01T17:07:30.507Z,25.23
2022-09-01T17:10:06.895Z,25.22
2022-09-01T17:12:43.448Z,25.18
2022-09-01T17:15:16.102Z,25.17
2022-09-01T17:17:51.511Z,25.14
2022-09-01T17:20:27.218Z,25.14
2022-09-01T17:23:08.735Z,25.14
2022-09-01T17:25:44.122Z,25.12
2022-09-01T17:28:20.418Z,25.13
2022-09-01T17:30:56.740Z,25.11
2022-09-01T17:33:38.677Z,25.11
2022-09-01T17:36:20.229Z,25.09
2022-09-01T17:38:56.715Z,25.08
2022-09-01T17:41:36.241Z,25.04
2022-09-01T17:44:18.450Z,25.03
2022-09-01T17:46:55.825Z,25.00
2022-09-01T17:49:33.794Z,24.95
2022-09-01T17:52:17.186Z,24.92
2022-09-01T17:54:58.083Z,24.91
2022-09-01T17:57:35.511Z,24.89
2022-09-01T18:00:10.819Z,24.84
2022-09-01T18:03:06.219Z,24.80
2022-09-01T18:05:41.736Z,24.80
2022-09-01T18:08:30.107Z,24.76
2022-09-01T18:11:03.039Z,24.73
2022-09-01T18:13:52.830Z,24.70
2022-09-01T18:16:27.730Z,24.66
2022-09-01T18:19:02.655Z,24.61
2022-09-01T18:21:37.419Z,24.56
2022-09-01T18:24:23.096Z,24.51
2022-09-01T18:26:54.893Z,24.48
2022-09-01T18:29:29.696Z,24.45
2022-09-01T18:32:12.282Z,24.42
2022-09-01T18:34:59.126Z,24.40
2022-09-01T18:37:40.329Z,24.36
2022-09-01T18:40:21.821Z,24.32
2022-09-01T18:43:01.639Z,24.30
2022-09-01T18:45:40.418Z,24.27
2022-09-01T18:48:19.571Z,24.23
2022-09-01T18:50:55.893Z,24.19
2022-09-01T18:53:37.709Z,24.16
2022-09-01T18:56:20.906Z,24.14
2022-09-01T18:59:07.035Z,24.12
2022-09-01T19:01:40.929Z,24.12
2022-09-01T19:04:18.596Z,24.09
2022-09-01T19:06:59.978Z,24.04
2022-09-01T19:09:36.184Z,24.01
2022-09-01T19:12:18.846Z,23.99
2022-09-01T19:14:55.189Z,23.98
2022-09-01T19:17:42.885Z,23.93
2022-09-01T19:20:17.140Z,23.91
2022-09-01T19:22:54.358Z,23.90
2022-09-01T19:25:37.226Z,23.86
2022-09-01T19:28:19.601Z,23.82
2022-09-01T19:30:54.939Z,23.80
2022-09-01T19:33:29.195Z,23.79
2022-09-01T19:36:05.272Z,23.75
2022-09-01T19:38:37.663Z,23.71
2022-09-01T19:41:14.584Z,23.67
2022-09-01T19:43:48.253Z,23.65
2022-09-01T19:46:28.406Z,23.63
2022-09-01T19:49:07.017Z,23.61
2022-09-01T19:51:43.891Z,23.59
2022-09-01T19:54:21.107Z,23.56
2022-09-01T19:56:59.382Z,23.56
2022-09-01T19:59:45.615Z,23.55
2022-09-01T20:02:25.821Z,23.52
2022-09-01T20:05:02.177Z,23.50
2022-09-01T20:07:38.705Z,23.46
2022-09-01T20:10:23.312Z,23.38
2022-09-01T20:13:08.815Z,23.34
2022-09-01T20:15:47.056Z,23.31
2022-09-01T20:18:29.648Z,23.28
2022-09-01T20:21:02.683Z,23.26
2022-09-01T20:23:39.871Z,23.22
2022-09-01T20:26:15.809Z,23.16
2022-09-01T20:28:51.439Z,23.15
2022-09-01T20:31:28.134Z,23.12
2022-09-01T20:34:02.775Z,23.10
2022-09-01T20:36:38.173Z,23.08
2022-09-01T20:39:26.589Z,23.07
2022-09-01T20:42:01.399Z,23.03
2022-09-01T20:44:40.034Z,23.02
2022-09-01T20:47:15.182Z,22.99
2022-09-01T20:49:45.738Z,23.00
2022-09-01T20:52:22.384Z,22.96
2022-09-01T20:54:56.114Z,22.94
2022-09-01T20:57:40.357Z,22.94
2022-09-01T21:00:13.501Z,22.92
2022-09-01T21:02:53.394Z,22.90
2022-09-01T21:05:38.332Z,22.87
2022-09-01T21:08:28.885Z,22.84
2022-09-01T21:11:03.273Z,22.83
2022-09-01T21:13:55.064Z,22.80
2022-09-01T21:16:34.706Z,22.77
2022-09-01T21:19:12.374Z,22.76
2022-09-01T21:21:48.708Z,22.73
2022-09-01T21:24:18.495Z,22.73
2022-09-01T21:26:49.038Z,22.71
2022-09-01T21:29:35.526Z,22.68
2022-09-01T21:32:06.808Z,22.69
2022-09-01T21:34:39.474Z,22.67
2022-09-01T21:37:09.321Z,22.68
2022-09-01T21:39:39.466Z,22.65
2022-09-01T21:42:12.359Z,22.63
2022-09-01T21:44:44.691Z,22.61
2022-09-01T21:47:15.405Z,22.59
2022-09-01T21:49:48.153Z,22.55
2022-09-01T21:52:18.100Z,22.55
2022-09-01T21:54:48.549Z,22.54
2022-09-01T21:57:20.958Z,22.52
2022-09-01T21:59:51.556Z,22.51
2022-09-01T22:02:22.806Z,22.48
2022-09-01T22:05:01.424Z,22.46
2022-09-01T22:07:33.643Z,22.44
2022-09-01T22:10:03.837Z,22.41
2022-09-01T22:12:33.749Z,22.39
2022-09-01T22:15:04.814Z,22.34
2022-09-01T22:17:34.722Z,22.35
2022-09-01T22:20:17.127Z,22.32
2022-09-01T22:22:47.542Z,22.31
2022-09-01T22:25:20.252Z,22.29
2022-09-01T22:27:50.259Z,22.27
2022-09-01T22:30:20.639Z,22.25
2022-09-01T22:32:51.008Z,22.23
2022-09-01T22:35:23.695Z,22.20
2022-09-01T22:37:53.516Z,22.19
2022-09-01T22:40:23.754Z,22.17
2022-09-01T22:42:54.028Z,22.14
2022-09-01T22:45:24.006Z,22.10
2022-09-01T22:47:53.831Z,22.08
2022-09-01T22:50:26.660Z,22.04
2022-09-01T22:52:56.485Z,22.06
2022-09-01T22:55:28.181Z,22.02
2022-09-01T22:57:58.019Z,22.01
2022-09-01T23:00:28.064Z,21.99
2022-09-01T23:02:59.086Z,21.98
2022-09-01T23:05:32.174Z,21.96
2022-09-01T23:08:03.905Z,21.94
2022-09-01T23:10:33.677Z,21.90
2022-09-01T23:13:03.491Z,21.88
2022-09-01T23:15:33.639Z,21.87
2022-09-01T23:18:03.971Z,21.84
2022-09-01T23:20:36.418Z,21.81
2022-09-01T23:23:06.701Z,21.81
2022-09-01T23:25:36.511Z,21.80
2022-09-01T23:28:06.419Z,21.78
2022-09-01T23:30:36.455Z,21.76
2022-09-01T23:33:08.323Z,21.73
2022-09-01T23:35:44.462Z,21.71
2022-09-01T23:38:18.005Z,21.72
2022-09-01T23:40:49.773Z,21.71
2022-09-01T23:43:21.997Z,21.68
2022-09-01T23:45:56.375Z,21.67
2022-09-01T23:48:27.787Z,21.65
2022-09-01T23:51:04.591Z,21.64
2022-09-01T23:53:36.389Z,21.64
2022-09-01T23:56:11.422Z,21.61
2022-09-01T23:58:42.473Z,21.61
